createdAt,value
2022-08-07T00:00:26.817Z,2.20
2022-08-07T00:02:57.013Z,2.30
2022-08-07T00:05:26.019Z,2.15
2022-08-07T00:08:00.102Z,2.40
2022-08-07T00:10:31.225Z,2.20
2022-08-07T00:13:17.362Z,2.35
2022-08-07T00:15:52.950Z,2.78
2022-08-07T00:18:24.049Z,2.45
2022-08-07T00:21:08.124Z,2.40
2022-08-07T00:23:51.754Z,2.40
2022-08-07T00:26:49.536Z,2.60
2022-08-07T00:29:06.212Z,2.35
2022-08-07T00:31:37.421Z,2.50
2022-08-07T00:34:08.846Z,2.20
2022-08-07T00:36:42.658Z,2.83
2022-08-07T00:39:17.103Z,2.63
2022-08-07T00:42:02.482Z,2.53
2022-08-07T00:44:41.282Z,2.70
2022-08-07T00:47:16.150Z,2.60
2022-08-07T00:50:20.546Z,2.65
2022-08-07T00:52:47.443Z,2.60
2022-08-07T00:55:17.526Z,2.38
2022-08-07T00:57:55.707Z,2.45
2022-08-07T01:00:23.933Z,2.60
2022-08-07T01:02:51.966Z,2.65
2022-08-07T01:05:20.980Z,2.63
2022-08-07T01:07:52.258Z,2.55
2022-08-07T01:10:20.934Z,2.70
2022-08-07T01:12:54.079Z,2.50
2022-08-07T01:15:35.765Z,3.08
2022-08-07T01:18:16.812Z,2.53
2022-08-07T01:21:05.709Z,2.50
2022-08-07T01:23:51.575Z,2.85
2022-08-07T01:26:21.018Z,3.00
2022-08-07T01:28:51.560Z,2.90
2022-08-07T01:31:41.837Z,2.55
2022-08-07T01:34:14.440Z,2.88
2022-08-07T01:36:44.226Z,3.03
2022-08-07T01:39:22.727Z,2.90
2022-08-07T01:42:39.014Z,3.78
2022-08-07T01:44:51.170Z,3.65
2022-08-07T01:48:18.954Z,2.70
2022-08-07T01:50:07.162Z,2.88
2022-08-07T01:52:39.269Z,2.70
2022-08-07T01:55:22.232Z,2.70
2022-08-07T01:58:06.195Z,2.50
2022-08-07T02:00:48.823Z,2.33
2022-08-07T02:03:21.672Z,2.35
2022-08-07T02:06:02.647Z,2.38
2022-08-07T02:08:54.374Z,2.85
2022-08-07T02:11:30.690Z,2.80
2022-08-07T02:14:35.476Z,2.30
2022-08-07T02:17:03.532Z,2.58
2022-08-07T02:20:04.109Z,2.80
2022-08-07T02:22:25.656Z,2.78
2022-08-07T02:24:56.460Z,2.47
2022-08-07T02:27:26.992Z,2.70
2022-08-07T02:30:07.111Z,2.80
2022-08-07T02:32:39.527Z,2.53
2022-08-07T02:36:30.487Z,2.63
2022-08-07T02:38:16.245Z,2.97
2022-08-07T02:40:46.647Z,3.00
2022-08-07T02:43:16.958Z,2.80
2022-08-07T02:45:58.231Z,2.67
2022-08-07T02:48:30.719Z,2.97
2022-08-07T02:51:03.430Z,3.05
2022-08-07T02:53:38.438Z,3.30
2022-08-07T02:56:21.104Z,2.97
2022-08-07T02:58:54.065Z,3.83
2022-08-07T03:01:36.304Z,3.00
2022-08-07T03:04:13.835Z,3.47
2022-08-07T03:06:46.098Z,3.40
2022-08-07T03:09:43.838Z,3.42
2022-08-07T03:12:19.181Z,3.35
2022-08-07T03:14:56.608Z,3.20
2022-08-07T03:17:24.581Z,3.45
2022-08-07T03:19:55.529Z,3.83
2022-08-07T03:22:29.507Z,3.35
2022-08-07T03:25:00.484Z,3.10
2022-08-07T03:27:42.184Z,3.08
2022-08-07T03:30:24.374Z,3.10
2022-08-07T03:32:58.891Z,3.45
2022-08-07T03:35:44.025Z,3.45
2022-08-07T03:38:20.963Z,3.00
2022-08-07T03:40:53.936Z,3.00
2022-08-07T03:43:32.494Z,2.88
2022-08-07T03:46:10.476Z,3.55
2022-08-07T03:49:02.845Z,3.70
2022-08-07T03:51:47.227Z,3.13
2022-08-07T03:54:35.336Z,3.35
2022-08-07T03:57:08.685Z,2.97
2022-08-07T03:59:46.740Z,2.90
2022-08-07T04:02:28.400Z,2.78
2022-08-07T04:04:57.091Z,3.60
2022-08-07T04:07:25.275Z,3.75
2022-08-07T04:10:04.328Z,2.97
2022-08-07T04:12:35.273Z,3.38
2022-08-07T04:15:05.011Z,4.03
2022-08-07T04:18:31.917Z,4.07
2022-08-07T04:20:25.379Z,4.25
2022-08-07T04:23:01.353Z,4.35
2022-08-07T04:25:39.366Z,3.65
2022-08-07T04:28:13.256Z,3.40
2022-08-07T04:30:51.259Z,4.13
2022-08-07T04:33:29.051Z,4.15
2022-08-07T04:35:59.004Z,3.78
2022-08-07T04:38:29.246Z,4.32
2022-08-07T04:40:58.059Z,3.63
2022-08-07T04:47:04.155Z,4.40
2022-08-07T04:49:57.987Z,4.10
2022-08-07T04:52:52.041Z,3.90
2022-08-07T04:58:10.760Z,4.30
2022-08-07T04:58:42.419Z,3.58
2022-08-07T05:01:46.786Z,4.80
2022-08-07T05:04:36.448Z,3.38
2022-08-07T05:07:20.380Z,3.35
2022-08-07T05:09:51.392Z,3.65
2022-08-07T05:12:30.481Z,4.05
2022-08-07T05:15:23.423Z,3.58
2022-08-07T05:18:10.525Z,3.85
2022-08-07T05:20:45.254Z,4.75
2022-08-07T05:23:38.664Z,4.30
2022-08-07T05:26:18.905Z,3.20
2022-08-07T05:28:59.308Z,3.97
2022-08-07T05:31:38.742Z,3.30
2022-08-07T05:34:15.832Z,3.78
2022-08-07T05:36:53.982Z,4.50
2022-08-07T05:40:05.689Z,3.75
2022-08-07T05:42:34.947Z,4.03
2022-08-07T05:45:25.987Z,4.25
2022-08-07T05:48:05.500Z,3.90
2022-08-07T05:50:42.910Z,3.75
2022-08-07T05:54:12.866Z,4.10
2022-08-07T05:56:05.971Z,5.03
2022-08-07T05:58:40.756Z,3.90
2022-08-07T06:01:20.294Z,4.40
2022-08-07T06:03:58.653Z,4.50
2022-08-07T06:06:36.610Z,3.80
2022-08-07T06:09:08.240Z,4.80
2022-08-07T06:11:39.917Z,4.32
2022-08-07T06:14:12.788Z,3.83
2022-08-07T06:16:56.372Z,3.83
2022-08-07T06:19:47.904Z,3.47
2022-08-07T06:22:24.062Z,2.78
2022-08-07T06:25:14.993Z,2.95
2022-08-07T06:27:59.798Z,3.00
2022-08-07T06:30:35.710Z,3.03
2022-08-07T06:33:16.870Z,3.38
2022-08-07T06:36:12.946Z,3.30
2022-08-07T06:38:58.357Z,2.63
2022-08-07T06:42:00.815Z,2.58
2022-08-07T06:44:24.244Z,2.55
2022-08-07T06:46:53.794Z,2.95
2022-08-07T06:49:52.172Z,2.90
2022-08-07T06:52:35.778Z,2.88
2022-08-07T06:55:32.990Z,2.45
2022-08-07T06:58:10.506Z,2.83
2022-08-07T07:00:57.441Z,2.70
2022-08-07T07:03:39.923Z,2.78
2022-08-07T07:06:13.040Z,2.25
2022-08-07T07:08:46.722Z,2.10
2022-08-07T07:12:08.358Z,3.17
2022-08-07T07:14:08.423Z,2.50
2022-08-07T07:16:49.935Z,2.30
2022-08-07T07:19:55.204Z,2.85
2022-08-07T07:22:34.036Z,2.50
2022-08-07T07:26:30.449Z,2.50
2022-08-07T07:28:29.861Z,2.70
2022-08-07T07:33:49.074Z,2.95
2022-08-07T07:36:32.207Z,2.63
2022-08-07T07:39:02.994Z,2.30
2022-08-07T07:42:02.237Z,2.75
2022-08-07T07:44:26.574Z,2.70
2022-08-07T07:47:04.413Z,2.50
2022-08-07T07:50:32.445Z,2.40
2022-08-07T07:52:32.967Z,2.30
2022-08-07T07:55:03.473Z,2.42
2022-08-07T07:57:51.683Z,2.80
2022-08-07T08:00:29.178Z,2.95
2022-08-07T08:03:06.093Z,2.63
2022-08-07T08:05:51.135Z,2.78
2022-08-07T08:08:35.058Z,2.88
2022-08-07T08:11:08.636Z,2.63
2022-08-07T08:13:54.483Z,2.25
2022-08-07T08:16:50.601Z,2.53
2022-08-07T08:20:18.552Z,2.28
2022-08-07T08:22:32.971Z,2.35
2022-08-07T08:25:41.769Z,2.45
2022-08-07T08:28:16.902Z,3.05
2022-08-07T08:31:05.213Z,2.70
2022-08-07T08:33:35.471Z,2.42
2022-08-07T08:36:10.811Z,2.63
2022-08-07T08:41:23.141Z,3.03
2022-08-07T08:44:08.276Z,2.50
2022-08-07T08:46:44.926Z,2.72
2022-08-07T08:49:46.853Z,3.03
2022-08-07T08:52:32.143Z,2.42
2022-08-07T08:55:07.940Z,2.20
2022-08-07T08:57:42.411Z,2.53
2022-08-07T09:00:14.082Z,2.42
2022-08-07T09:03:07.561Z,2.50
2022-08-07T09:05:38.848Z,2.38
2022-08-07T09:08:37.574Z,2.47
2022-08-07T09:11:43.783Z,2.20
2022-08-07T09:14:37.631Z,1.80
2022-08-07T09:17:21.035Z,1.70
2022-08-07T09:20:35.306Z,2.30
2022-08-07T09:30:00.559Z,1.85
2022-08-07T09:31:57.124Z,1.70
2022-08-07T09:34:32.963Z,2.10
2022-08-07T09:37:33.658Z,2.13
2022-08-07T09:40:13.084Z,1.90
2022-08-07T09:44:03.685Z,1.88
2022-08-07T09:47:49.518Z,1.80
2022-08-07T09:50:01.670Z,1.90
2022-08-07T09:52:34.427Z,1.80
2022-08-07T09:56:03.380Z,1.80
2022-08-07T09:58:56.198Z,1.58
2022-08-07T10:02:01.672Z,1.73
2022-08-07T10:04:46.025Z,1.60
2022-08-07T10:07:58.182Z,1.90
2022-08-07T10:11:59.859Z,2.20
2022-08-07T10:14:00.534Z,1.60
2022-08-07T10:17:14.208Z,1.75
2022-08-07T10:19:53.006Z,1.50
2022-08-07T10:22:51.169Z,1.50
2022-08-07T10:25:43.077Z,1.38
2022-08-07T10:28:23.760Z,1.38
2022-08-07T10:31:18.126Z,1.27
2022-08-07T10:34:14.624Z,1.40
2022-08-07T10:36:54.109Z,1.50
2022-08-07T10:40:05.543Z,1.45
2022-08-07T10:42:52.775Z,1.52
2022-08-07T10:48:23.888Z,1.60
2022-08-07T10:51:16.837Z,1.50
2022-08-07T10:54:10.878Z,1.50
2022-08-07T10:56:49.689Z,1.48
2022-08-07T10:59:37.791Z,1.50
2022-08-07T11:02:33.279Z,1.55
2022-08-07T11:05:05.325Z,1.70
2022-08-07T11:08:00.366Z,1.50
2022-08-07T11:10:57.868Z,1.52
2022-08-07T11:14:46.452Z,1.50
2022-08-07T11:16:34.264Z,1.60
2022-08-07T11:19:27.194Z,1.27
2022-08-07T11:22:03.260Z,1.42
2022-08-07T11:24:53.742Z,1.42
2022-08-07T11:28:02.960Z,2.00
2022-08-07T11:30:41.623Z,1.70
2022-08-07T11:33:54.372Z,1.50
2022-08-07T11:36:41.030Z,1.55
2022-08-07T11:39:59.455Z,1.73
2022-08-07T11:42:44.236Z,1.60
2022-08-07T11:45:35.794Z,1.48
2022-08-07T11:48:29.997Z,1.90
2022-08-07T11:51:10.256Z,1.73
2022-08-07T11:54:31.839Z,1.70
2022-08-07T11:57:59.575Z,1.42
2022-08-07T12:01:04.227Z,1.80
2022-08-07T12:03:57.374Z,1.65
2022-08-07T12:06:57.287Z,1.65
2022-08-07T12:09:43.180Z,1.50
2022-08-07T12:12:31.454Z,1.40
2022-08-07T12:15:08.087Z,1.70
2022-08-07T12:18:08.018Z,1.60
2022-08-07T12:20:49.387Z,1.40
2022-08-07T12:24:06.403Z,1.50
2022-08-07T12:26:47.381Z,1.50
2022-08-07T12:29:40.390Z,1.67
2022-08-07T12:32:33.076Z,1.40
2022-08-07T12:35:07.276Z,1.30
2022-08-07T12:38:09.853Z,1.23
2022-08-07T12:40:47.667Z,1.50
2022-08-07T12:44:03.357Z,1.58
2022-08-07T12:46:33.475Z,1.50
2022-08-07T12:49:39.419Z,1.58
2022-08-07T12:52:19.212Z,1.48
2022-08-07T12:55:05.108Z,1.52
2022-08-07T12:57:59.134Z,1.52
2022-08-07T13:00:50.693Z,1.50
2022-08-07T13:03:59.316Z,1.55
2022-08-07T13:06:31.493Z,1.70
2022-08-07T13:10:10.137Z,1.40
2022-08-07T13:12:29.254Z,1.90
2022-08-07T13:15:23.438Z,1.80
2022-08-07T13:18:26.771Z,2.08
2022-08-07T13:21:51.099Z,1.60
2022-08-07T13:24:29.448Z,1.73
2022-08-07T13:27:10.587Z,1.52
2022-08-07T13:30:03.565Z,1.50
2022-08-07T13:32:37.597Z,1.40
2022-08-07T13:36:00.467Z,1.30
2022-08-07T13:38:54.747Z,1.40
2022-08-07T13:41:47.501Z,1.50
2022-08-07T13:44:26.012Z,1.60
2022-08-07T13:46:59.969Z,1.50
2022-08-07T13:52:32.397Z,1.80
2022-08-07T13:55:19.307Z,1.20
2022-08-07T13:58:28.086Z,1.55
2022-08-07T14:01:09.129Z,1.48
2022-08-07T14:04:05.411Z,1.40
2022-08-07T14:06:34.739Z,1.30
2022-08-07T14:09:05.021Z,1.20
2022-08-07T14:11:53.780Z,1.50
2022-08-07T14:14:42.000Z,1.63
2022-08-07T14:18:12.334Z,1.50
2022-08-07T14:20:41.830Z,1.45
2022-08-07T14:23:17.963Z,1.55
2022-08-07T14:26:05.758Z,1.20
2022-08-07T14:28:57.494Z,1.25
2022-08-07T14:31:42.752Z,1.25
2022-08-07T14:34:19.923Z,1.17
2022-08-07T14:36:56.245Z,1.38
2022-08-07T14:40:15.606Z,1.20
2022-08-07T14:42:18.505Z,1.30
2022-08-07T14:44:54.032Z,1.70
2022-08-07T14:47:33.770Z,1.35
2022-08-07T14:50:11.282Z,1.20
2022-08-07T14:52:41.865Z,1.30
2022-08-07T14:55:12.531Z,1.10
2022-08-07T14:57:58.683Z,1.45
2022-08-07T15:00:38.564Z,1.17
2022-08-07T15:03:19.146Z,1.50
2022-08-07T15:08:54.724Z,1.90
2022-08-07T15:11:53.849Z,1.70
2022-08-07T15:17:20.126Z,1.67
2022-08-07T15:20:32.758Z,1.45
2022-08-07T15:22:53.593Z,1.40
2022-08-07T15:25:36.851Z,1.50
2022-08-07T15:28:36.467Z,1.65
2022-08-07T15:34:02.685Z,1.42
2022-08-07T15:37:04.087Z,1.70
2022-08-07T15:39:24.503Z,1.67
2022-08-07T15:42:43.440Z,1.95
2022-08-07T15:44:53.693Z,1.90
2022-08-07T15:48:00.845Z,1.80
2022-08-07T15:53:15.424Z,2.05
2022-08-07T15:56:01.818Z,2.28
2022-08-07T15:58:38.790Z,2.20
2022-08-07T16:01:13.884Z,2.17
2022-08-07T16:03:55.696Z,2.25
2022-08-07T16:06:37.220Z,2.03
2022-08-07T16:09:12.927Z,2.03
2022-08-07T16:12:13.916Z,2.58
2022-08-07T16:15:09.029Z,2.50
2022-08-07T16:18:08.307Z,2.45
2022-08-07T16:20:55.242Z,2.20
2022-08-07T16:24:33.751Z,2.13
2022-08-07T16:27:18.031Z,2.60
2022-08-07T16:30:29.530Z,2.30
2022-08-07T16:34:01.626Z,2.20
2022-08-07T16:36:31.185Z,2.10
2022-08-07T16:39:00.832Z,2.20
2022-08-07T16:41:48.705Z,2.22
2022-08-07T16:45:24.550Z,2.17
2022-08-07T16:47:56.497Z,2.20
2022-08-07T16:51:13.508Z,2.30
2022-08-07T16:54:10.764Z,2.13
2022-08-07T16:56:45.625Z,2.28
2022-08-07T16:59:46.820Z,2.30
2022-08-07T17:02:50.879Z,2.28
2022-08-07T17:06:19.572Z,2.40
2022-08-07T17:09:15.860Z,2.20
2022-08-07T17:12:35.841Z,3.90
2022-08-07T17:17:52.752Z,3.80
2022-08-07T17:20:29.731Z,3.60
2022-08-07T17:23:32.325Z,2.97
2022-08-07T17:26:29.962Z,2.40
2022-08-07T17:28:58.632Z,2.50
2022-08-07T17:31:44.319Z,2.35
2022-08-07T17:34:57.131Z,2.60
2022-08-07T17:38:06.802Z,2.25
2022-08-07T17:40:50.593Z,2.00
2022-08-07T17:44:00.892Z,2.20
2022-08-07T17:46:36.547Z,2.00
2022-08-07T17:49:22.839Z,2.10
2022-08-07T17:52:30.923Z,2.30
2022-08-07T17:55:16.484Z,2.40
2022-08-07T17:58:30.271Z,2.40
2022-08-07T18:01:03.099Z,2.70
2022-08-07T18:04:07.636Z,2.90
2022-08-07T18:06:43.047Z,2.80
2022-08-07T18:10:04.503Z,2.78
2022-08-07T18:12:30.492Z,2.47
2022-08-07T18:15:18.866Z,2.88
2022-08-07T18:18:46.695Z,2.75
2022-08-07T18:21:10.964Z,2.20
2022-08-07T18:24:02.052Z,2.80
2022-08-07T18:26:55.188Z,2.60
2022-08-07T18:30:06.736Z,2.70
2022-08-07T18:33:12.025Z,2.72
2022-08-07T18:36:03.685Z,2.55
2022-08-07T18:38:57.673Z,2.15
2022-08-07T18:42:05.898Z,2.28
2022-08-07T18:45:39.850Z,2.78
2022-08-07T18:48:01.021Z,2.10
2022-08-07T18:50:45.908Z,2.20
2022-08-07T18:53:41.607Z,2.10
2022-08-07T18:56:21.196Z,2.35
2022-08-07T18:59:47.563Z,2.65
2022-08-07T19:02:42.006Z,3.20
2022-08-07T19:08:31.078Z,3.05
2022-08-07T19:11:34.797Z,3.00
2022-08-07T19:14:39.099Z,3.20
2022-08-07T19:17:57.165Z,3.30
2022-08-07T19:20:29.032Z,2.90
2022-08-07T19:23:57.128Z,2.83
2022-08-07T19:26:25.067Z,3.22
2022-08-07T19:31:03.997Z,2.80
2022-08-07T19:32:18.789Z,3.08
2022-08-07T19:34:51.298Z,2.90
2022-08-07T19:37:22.366Z,3.20
2022-08-07T19:40:02.247Z,2.60
2022-08-07T19:42:40.132Z,2.33
2022-08-07T19:45:13.588Z,2.70
2022-08-07T19:48:01.574Z,2.70
2022-08-07T19:50:45.311Z,2.80
2022-08-07T19:54:31.491Z,2.70
2022-08-07T19:56:15.169Z,2.10
2022-08-07T19:58:57.653Z,2.00
2022-08-07T20:01:43.726Z,1.90
2022-08-07T20:04:31.478Z,2.35
2022-08-07T20:07:09.364Z,2.17
2022-08-07T20:10:36.033Z,2.90
2022-08-07T20:12:40.777Z,4.47
2022-08-07T20:15:22.026Z,2.67
2022-08-07T20:18:01.593Z,2.17
2022-08-07T20:20:32.952Z,1.80
2022-08-07T20:23:22.978Z,1.70
2022-08-07T20:25:53.525Z,1.77
2022-08-07T20:28:20.990Z,2.00
2022-08-07T20:30:59.310Z,2.10
2022-08-07T20:33:37.621Z,1.90
2022-08-07T20:36:08.989Z,2.38
2022-08-07T20:38:59.316Z,2.05
2022-08-07T20:41:33.980Z,1.98
2022-08-07T20:44:12.674Z,1.85
2022-08-07T20:46:43.700Z,1.90
2022-08-07T20:49:59.424Z,1.77
2022-08-07T20:52:13.819Z,2.13
2022-08-07T20:54:53.292Z,2.05
2022-08-07T20:57:25.707Z,2.00
2022-08-07T21:03:00.970Z,1.83
2022-08-07T21:05:50.900Z,1.85
2022-08-07T21:08:46.862Z,2.05
2022-08-07T21:11:22.130Z,1.70
2022-08-07T21:14:29.518Z,1.75
2022-08-07T21:16:56.977Z,2.03
2022-08-07T21:19:51.453Z,2.03
2022-08-07T21:22:28.209Z,1.92
2022-08-07T21:25:56.329Z,2.20
2022-08-07T21:28:56.288Z,2.00
2022-08-07T21:32:42.554Z,1.90
2022-08-07T21:34:48.184Z,1.90
2022-08-07T21:37:24.196Z,2.00
2022-08-07T21:40:06.659Z,1.88
2022-08-07T21:42:51.276Z,2.00
2022-08-07T21:46:07.573Z,2.03
2022-08-07T21:48:48.248Z,2.03
2022-08-07T21:51:27.525Z,2.03
2022-08-07T21:54:13.056Z,1.60
2022-08-07T21:57:00.316Z,1.70
2022-08-07T22:00:02.844Z,1.75
2022-08-07T22:02:41.520Z,1.67
2022-08-07T22:05:44.556Z,1.42
2022-08-07T22:08:10.260Z,1.45
2022-08-07T22:10:38.663Z,1.40
2022-08-07T22:13:14.448Z,1.50
2022-08-07T22:16:43.622Z,1.30
2022-08-07T22:19:00.978Z,1.40
2022-08-07T22:22:02.628Z,1.30
2022-08-07T22:24:36.179Z,1.27
2022-08-07T22:27:18.787Z,1.40
2022-08-07T22:30:03.461Z,1.50
2022-08-07T22:32:42.278Z,1.38
2022-08-07T22:35:12.045Z,1.40
2022-08-07T22:38:05.397Z,1.27
2022-08-07T22:40:44.990Z,1.33
2022-08-07T22:43:18.216Z,1.30
2022-08-07T22:47:02.462Z,1.70
2022-08-07T22:49:42.846Z,1.60
2022-08-07T22:52:50.028Z,1.30
2022-08-07T22:55:43.191Z,1.60
2022-08-07T22:58:55.465Z,1.50
2022-08-07T23:01:50.864Z,1.45
2022-08-07T23:04:57.050Z,1.52
2022-08-07T23:07:52.611Z,1.58
2022-08-07T23:10:57.594Z,1.65
2022-08-07T23:13:48.956Z,1.20
2022-08-07T23:16:44.518Z,1.40
2022-08-07T23:19:57.767Z,1.45
2022-08-07T23:22:52.282Z,1.95
2022-08-07T23:25:57.919Z,1.35
2022-08-07T23:28:33.988Z,1.50
2022-08-07T23:32:50.113Z,1.40
2022-08-07T23:34:41.750Z,1.40
2022-08-07T23:37:32.830Z,1.40
2022-08-07T23:40:13.029Z,1.55
2022-08-07T23:43:16.464Z,1.40
2022-08-07T23:46:01.875Z,1.52
2022-08-07T23:48:34.643Z,1.70
2022-08-07T23:53:01.446Z,1.52
2022-08-07T23:54:44.096Z,1.65
2022-08-07T23:57:27.561Z,1.63
